createdAt,value
2019-04-10T00:00:35.731Z,77.40
2019-04-10T00:02:10.587Z,81.28
2019-04-10T00:03:44.825Z,89.95
2019-04-10T00:05:19.864Z,92.72
2019-04-10T00:07:07.806Z,88.55
2019-04-10T00:08:30.534Z,84.90
2019-04-10T00:10:06.164Z,87.05
2019-04-10T00:11:40.986Z,86.63
2019-04-10T00:13:15.341Z,87.53
2019-04-10T00:14:50.530Z,78.67
2019-04-10T00:16:24.810Z,77.82
2019-04-10T00:17:59.854Z,93.33
2019-04-10T00:19:35.735Z,82.78
2019-04-10T00:21:11.270Z,83.58
2019-04-10T00:22:46.545Z,81.45
2019-04-10T00:24:21.958Z,84.05
2019-04-10T00:25:57.269Z,85.77
2019-04-10T00:27:31.738Z,82.85
2019-04-10T00:29:05.969Z,78.57
2019-04-10T00:30:40.979Z,79.97
2019-04-10T00:32:16.114Z,81.45
2019-04-10T00:33:51.378Z,74.90
2019-04-10T00:35:25.792Z,73.57
2019-04-10T00:37:01.668Z,76.05
2019-04-10T00:38:37.958Z,74.10
2019-04-10T00:40:12.387Z,74.70
2019-04-10T00:41:46.223Z,73.10
2019-04-10T00:43:20.687Z,69.25
2019-04-10T00:44:54.949Z,70.42
2019-04-10T00:46:30.388Z,68.20
2019-04-10T00:48:05.779Z,63.33
2019-04-10T00:49:40.355Z,70.35
2019-04-10T00:51:15.206Z,71.35
2019-04-10T00:52:49.708Z,68.83
2019-04-10T00:54:24.260Z,64.90
2019-04-10T00:55:58.556Z,67.42
2019-04-10T00:57:33.752Z,65.70
2019-04-10T00:59:08.934Z,65.90
2019-04-10T01:00:43.744Z,72.23
2019-04-10T01:02:18.557Z,69.27
2019-04-10T01:03:53.907Z,59.80
2019-04-10T01:05:28.432Z,63.68
2019-04-10T01:07:04.123Z,64.95
2019-04-10T01:08:38.683Z,68.05
2019-04-10T01:10:14.287Z,62.58
2019-04-10T01:11:49.679Z,65.37
2019-04-10T01:13:25.025Z,64.12
2019-04-10T01:15:00.189Z,69.27
2019-04-10T01:16:35.582Z,61.73
2019-04-10T01:18:10.951Z,61.65
2019-04-10T01:19:45.357Z,63.52
2019-04-10T01:21:19.989Z,65.10
2019-04-10T01:22:55.246Z,63.08
2019-04-10T01:24:30.098Z,66.90
2019-04-10T01:26:05.191Z,64.35
2019-04-10T01:27:41.035Z,61.28
2019-04-10T01:29:15.714Z,61.13
2019-04-10T01:30:50.742Z,68.92
2019-04-10T01:32:25.820Z,72.47
2019-04-10T01:34:01.037Z,79.32
2019-04-10T01:35:35.479Z,65.17
2019-04-10T01:37:10.415Z,69.80
2019-04-10T01:38:44.744Z,64.15
2019-04-10T01:40:19.186Z,69.27
2019-04-10T01:41:54.747Z,62.20
2019-04-10T01:43:29.286Z,66.82
2019-04-10T01:45:04.963Z,70.92
2019-04-10T01:46:40.229Z,62.45
2019-04-10T01:48:15.405Z,72.58
2019-04-10T01:49:50.348Z,74.35
2019-04-10T01:51:25.553Z,76.53
2019-04-10T01:53:00.126Z,71.40
2019-04-10T01:54:35.367Z,75.87
2019-04-10T01:56:21.238Z,72.10
2019-04-10T01:57:46.683Z,77.35
2019-04-10T01:59:23.625Z,73.40
2019-04-10T02:01:08.358Z,79.20
2019-04-10T02:02:47.778Z,75.78
2019-04-10T02:04:22.774Z,74.05
2019-04-10T02:05:57.243Z,88.15
2019-04-10T02:07:31.920Z,65.47
2019-04-10T02:09:09.393Z,78.52
2019-04-10T02:10:44.622Z,81.53
2019-04-10T02:12:19.147Z,78.37
2019-04-10T02:13:54.024Z,73.97
2019-04-10T02:15:28.775Z,72.67
2019-04-10T02:17:04.182Z,81.82
2019-04-10T02:18:38.858Z,71.05
2019-04-10T02:20:14.620Z,73.25
2019-04-10T02:21:49.754Z,69.72
2019-04-10T02:23:24.221Z,71.75
2019-04-10T02:24:59.528Z,74.75
2019-04-10T02:26:33.954Z,74.03
2019-04-10T02:28:09.002Z,75.97
2019-04-10T02:29:43.961Z,76.42
2019-04-10T02:31:22.010Z,76.12
2019-04-10T02:32:57.931Z,76.22
2019-04-10T02:34:32.788Z,71.77
2019-04-10T02:36:08.449Z,72.60
2019-04-10T02:37:43.434Z,74.07
2019-04-10T02:39:27.626Z,83.03
2019-04-10T02:40:55.601Z,82.35
2019-04-10T02:42:30.279Z,80.05
2019-04-10T02:44:05.143Z,87.25
2019-04-10T02:45:40.381Z,84.03
2019-04-10T02:47:16.753Z,87.25
2019-04-10T02:48:51.975Z,77.42
2019-04-10T02:50:27.291Z,83.67
2019-04-10T02:52:01.782Z,82.50
2019-04-10T02:53:37.389Z,88.80
2019-04-10T02:55:12.025Z,95.62
2019-04-10T02:56:47.786Z,86.92
2019-04-10T02:58:22.439Z,89.70
2019-04-10T02:59:57.683Z,90.67
2019-04-10T03:01:33.397Z,89.20
2019-04-10T03:03:07.846Z,83.50
2019-04-10T03:04:42.516Z,83.15
2019-04-10T03:06:18.892Z,83.55
2019-04-10T03:07:53.246Z,76.90
2019-04-10T03:09:41.801Z,82.02
2019-04-10T03:11:06.607Z,74.67
2019-04-10T03:12:41.014Z,92.20
2019-04-10T03:14:16.831Z,82.57
2019-04-10T03:15:51.836Z,82.10
2019-04-10T03:17:26.410Z,88.50
2019-04-10T03:19:01.245Z,84.42
2019-04-10T03:20:35.681Z,85.30
2019-04-10T03:22:10.485Z,92.27
2019-04-10T03:23:45.454Z,86.85
2019-04-10T03:25:21.146Z,89.37
2019-04-10T03:26:56.194Z,85.97
2019-04-10T03:28:31.974Z,86.92
2019-04-10T03:30:08.296Z,82.88
2019-04-10T03:31:45.072Z,90.32
2019-04-10T03:33:24.584Z,92.72
2019-04-10T03:34:58.562Z,77.05
2019-04-10T03:36:37.880Z,81.78
2019-04-10T03:38:12.557Z,82.30
2019-04-10T03:39:46.913Z,84.95
2019-04-10T03:41:21.212Z,79.53
2019-04-10T03:42:55.482Z,85.92
2019-04-10T03:44:30.451Z,83.10
2019-04-10T03:46:05.429Z,77.87
2019-04-10T03:47:39.828Z,78.35
2019-04-10T03:49:14.133Z,73.05
2019-04-10T03:50:48.805Z,78.90
2019-04-10T03:52:25.261Z,84.97
2019-04-10T03:54:00.571Z,79.85
2019-04-10T03:55:35.279Z,84.42
2019-04-10T03:57:10.114Z,80.32
2019-04-10T03:58:44.643Z,85.42
2019-04-10T04:00:20.891Z,91.10
2019-04-10T04:01:55.517Z,92.75
2019-04-10T04:03:30.794Z,81.02
2019-04-10T04:05:06.639Z,93.00
2019-04-10T04:06:42.048Z,77.65
2019-04-10T04:08:16.345Z,93.55
2019-04-10T04:09:51.573Z,95.42
2019-04-10T04:11:26.087Z,84.72
2019-04-10T04:13:01.494Z,93.52
2019-04-10T04:14:36.686Z,90.55
2019-04-10T04:16:11.371Z,88.20
2019-04-10T04:17:46.492Z,94.70
2019-04-10T04:19:21.795Z,96.22
2019-04-10T04:20:56.337Z,96.12
2019-04-10T04:22:30.767Z,105.07
2019-04-10T04:24:05.096Z,117.67
2019-04-10T04:25:39.388Z,113.45
2019-04-10T04:27:15.236Z,91.10
2019-04-10T04:28:50.191Z,100.05
2019-04-10T04:30:24.717Z,96.45
2019-04-10T04:31:59.160Z,96.65
2019-04-10T04:33:34.072Z,91.65
2019-04-10T04:35:09.188Z,87.57
2019-04-10T04:36:43.424Z,96.40
2019-04-10T04:38:17.878Z,98.82
2019-04-10T04:39:52.234Z,96.57
2019-04-10T04:41:27.391Z,90.87
2019-04-10T04:43:01.693Z,98.05
2019-04-10T04:44:35.922Z,108.87
2019-04-10T04:46:10.226Z,94.00
2019-04-10T04:47:44.984Z,103.87
2019-04-10T04:49:19.312Z,102.58
2019-04-10T04:50:54.421Z,96.02
2019-04-10T04:52:29.215Z,98.20
2019-04-10T04:54:04.551Z,93.72
2019-04-10T04:55:39.451Z,111.40
2019-04-10T04:57:14.915Z,120.25
2019-04-10T04:58:49.683Z,134.18
2019-04-10T05:00:25.689Z,137.95
2019-04-10T05:02:01.244Z,137.85
2019-04-10T05:03:37.555Z,117.65
2019-04-10T05:05:11.923Z,107.63
2019-04-10T05:06:47.713Z,115.85
2019-04-10T05:08:23.687Z,121.28
2019-04-10T05:10:00.220Z,123.50
2019-04-10T05:11:34.384Z,117.80
2019-04-10T05:13:08.789Z,132.45
2019-04-10T05:14:44.030Z,144.25
2019-04-10T05:16:18.658Z,152.12
2019-04-10T05:17:53.543Z,155.87
2019-04-10T05:19:28.198Z,153.93
2019-04-10T05:21:03.057Z,163.05
2019-04-10T05:22:37.425Z,134.65
2019-04-10T05:24:11.753Z,134.07
2019-04-10T05:25:46.247Z,158.25
2019-04-10T05:27:20.555Z,133.37
2019-04-10T05:28:54.991Z,107.75
2019-04-10T05:30:29.247Z,101.33
2019-04-10T05:32:03.709Z,99.13
2019-04-10T05:33:38.708Z,109.78
2019-04-10T05:35:12.993Z,107.63
2019-04-10T05:36:47.276Z,108.90
2019-04-10T05:38:22.807Z,98.78
2019-04-10T05:39:57.174Z,105.52
2019-04-10T05:41:31.513Z,111.50
2019-04-10T05:43:05.917Z,93.72
2019-04-10T05:44:40.426Z,98.05
2019-04-10T05:46:16.536Z,106.22
2019-04-10T05:47:51.167Z,105.55
2019-04-10T05:49:25.448Z,103.07
2019-04-10T05:51:04.345Z,100.27
2019-04-10T05:52:35.996Z,97.08
2019-04-10T05:54:10.581Z,103.70
2019-04-10T05:55:47.239Z,100.22
2019-04-10T05:57:24.513Z,99.40
2019-04-10T05:58:58.849Z,88.20
2019-04-10T06:00:34.847Z,87.33
2019-04-10T06:02:09.394Z,81.92
2019-04-10T06:03:45.590Z,84.22
2019-04-10T06:05:20.595Z,88.85
2019-04-10T06:06:56.865Z,110.03
2019-04-10T06:08:31.240Z,101.62
2019-04-10T06:10:10.227Z,104.60
2019-04-10T06:11:45.611Z,95.62
2019-04-10T06:13:19.985Z,97.95
2019-04-10T06:14:54.655Z,94.72
2019-04-10T06:16:30.325Z,91.55
2019-04-10T06:18:04.991Z,103.38
2019-04-10T06:19:40.469Z,93.47
2019-04-10T06:21:15.018Z,95.42
2019-04-10T06:22:50.617Z,91.22
2019-04-10T06:24:25.310Z,90.70
2019-04-10T06:26:00.519Z,79.07
2019-04-10T06:27:34.955Z,82.15
2019-04-10T06:29:10.546Z,86.22
2019-04-10T06:30:45.171Z,88.25
2019-04-10T06:32:19.464Z,77.85
2019-04-10T06:33:53.754Z,84.70
2019-04-10T06:35:28.316Z,87.30
2019-04-10T06:37:03.939Z,79.58
2019-04-10T06:38:39.151Z,77.87
2019-04-10T06:40:19.219Z,72.87
2019-04-10T06:41:50.624Z,77.17
2019-04-10T06:43:25.283Z,75.15
2019-04-10T06:45:01.012Z,71.87
2019-04-10T06:46:37.608Z,72.03
2019-04-10T06:48:11.472Z,74.22
2019-04-10T06:49:46.092Z,80.35
2019-04-10T06:51:21.594Z,77.82
2019-04-10T06:52:56.889Z,75.42
2019-04-10T06:54:31.699Z,70.97
2019-04-10T06:56:06.892Z,74.20
2019-04-10T06:57:49.193Z,78.15
2019-04-10T06:59:17.376Z,80.97
2019-04-10T07:00:54.573Z,72.60
2019-04-10T07:02:30.836Z,75.37
2019-04-10T07:04:07.625Z,74.27
2019-04-10T07:05:49.385Z,62.00
2019-04-10T07:07:20.275Z,53.87
2019-04-10T07:08:53.390Z,63.52
2019-04-10T07:10:37.201Z,60.28
2019-04-10T07:12:04.742Z,60.67
2019-04-10T07:13:40.451Z,57.48
2019-04-10T07:15:22.103Z,59.10
2019-04-10T07:16:52.894Z,59.27
2019-04-10T07:18:28.292Z,57.70
2019-04-10T07:20:03.758Z,52.88
2019-04-10T07:21:38.648Z,62.67
2019-04-10T07:23:14.532Z,66.00
2019-04-10T07:24:51.397Z,90.85
2019-04-10T07:26:35.392Z,77.85
2019-04-10T07:28:02.871Z,66.33
2019-04-10T07:29:38.323Z,75.05
2019-04-10T07:31:15.481Z,87.75
2019-04-10T07:32:50.814Z,80.00
2019-04-10T07:34:27.899Z,94.65
2019-04-10T07:36:04.281Z,79.25
2019-04-10T07:37:37.334Z,71.30
2019-04-10T07:39:13.043Z,73.07
2019-04-10T07:40:47.419Z,74.65
2019-04-10T07:42:29.388Z,71.40
2019-04-10T07:43:58.301Z,70.35
2019-04-10T07:45:35.409Z,76.87
2019-04-10T07:47:09.083Z,71.10
2019-04-10T07:48:43.556Z,65.05
2019-04-10T07:50:20.510Z,67.65
2019-04-10T07:51:54.735Z,67.78
2019-04-10T07:53:28.964Z,69.55
2019-04-10T07:55:04.393Z,69.82
2019-04-10T07:56:39.593Z,78.52
2019-04-10T07:58:15.219Z,74.80
2019-04-10T07:59:49.758Z,75.92
2019-04-10T08:01:24.267Z,94.03
2019-04-10T08:02:59.487Z,87.95
2019-04-10T08:04:35.321Z,75.28
2019-04-10T08:06:09.770Z,80.42
2019-04-10T08:07:45.211Z,83.97
2019-04-10T08:09:20.743Z,87.22
2019-04-10T08:10:55.561Z,79.30
2019-04-10T08:12:39.455Z,89.72
2019-04-10T08:14:08.207Z,68.35
2019-04-10T08:15:41.698Z,91.72
2019-04-10T08:17:21.787Z,78.80
2019-04-10T08:18:57.826Z,78.37
2019-04-10T08:20:32.696Z,102.38
2019-04-10T08:22:08.569Z,130.67
2019-04-10T08:23:43.174Z,95.80
2019-04-10T08:25:18.462Z,99.35
2019-04-10T08:26:52.899Z,98.97
2019-04-10T08:28:30.467Z,72.27
2019-04-10T08:30:03.483Z,99.07
2019-04-10T08:31:37.702Z,85.20
2019-04-10T08:33:14.058Z,90.70
2019-04-10T08:34:49.800Z,94.70
2019-04-10T08:36:25.585Z,93.42
2019-04-10T08:38:01.205Z,100.80
2019-04-10T08:39:41.668Z,82.33
2019-04-10T08:41:13.162Z,89.00
2019-04-10T08:42:47.649Z,71.67
2019-04-10T08:44:22.239Z,57.20
2019-04-10T08:45:56.904Z,58.65
2019-04-10T08:47:31.411Z,60.15
2019-04-10T08:49:05.898Z,58.25
2019-04-10T08:50:40.194Z,79.12
2019-04-10T08:52:16.550Z,77.53
2019-04-10T08:53:53.642Z,63.28
2019-04-10T08:55:28.148Z,59.48
2019-04-10T08:57:03.273Z,54.30
2019-04-10T08:58:37.797Z,49.60
2019-04-10T09:00:12.416Z,49.90
2019-04-10T09:01:47.248Z,47.53
2019-04-10T09:03:22.478Z,48.60
2019-04-10T09:04:57.352Z,49.58
2019-04-10T09:06:31.738Z,45.43
2019-04-10T09:08:06.248Z,45.12
2019-04-10T09:09:42.233Z,42.53
2019-04-10T09:11:25.571Z,45.05
2019-04-10T09:12:54.537Z,46.83
2019-04-10T09:14:29.514Z,50.25
2019-04-10T09:16:04.554Z,52.50
2019-04-10T09:17:39.675Z,53.90
2019-04-10T09:19:14.287Z,38.73
2019-04-10T09:20:49.098Z,43.70
2019-04-10T09:22:24.636Z,41.28
2019-04-10T09:24:00.310Z,47.50
2019-04-10T09:25:35.879Z,48.75
2019-04-10T09:27:10.969Z,43.60
2019-04-10T09:28:46.549Z,44.77
2019-04-10T09:30:21.298Z,40.12
2019-04-10T09:31:55.807Z,46.48
2019-04-10T09:33:32.209Z,44.27
2019-04-10T09:35:08.778Z,52.80
2019-04-10T09:36:43.717Z,45.80
2019-04-10T09:38:18.839Z,54.55
2019-04-10T09:39:54.872Z,53.78
2019-04-10T09:41:30.022Z,54.13
2019-04-10T09:43:05.095Z,49.25
2019-04-10T09:44:40.089Z,50.78
2019-04-10T09:46:14.445Z,48.40
2019-04-10T09:47:48.799Z,51.30
2019-04-10T09:49:33.778Z,52.93
2019-04-10T09:51:00.199Z,61.77
2019-04-10T09:52:35.660Z,51.13
2019-04-10T09:54:10.439Z,53.13
2019-04-10T09:55:46.857Z,63.23
2019-04-10T09:57:22.470Z,67.27
2019-04-10T09:58:57.049Z,66.37
2019-04-10T10:00:33.956Z,58.55
2019-04-10T10:02:09.244Z,56.83
2019-04-10T10:03:44.434Z,49.03
2019-04-10T10:05:20.289Z,48.70
2019-04-10T10:06:55.725Z,43.73
2019-04-10T10:08:31.610Z,42.35
2019-04-10T10:10:08.728Z,50.33
2019-04-10T10:11:43.514Z,45.25
2019-04-10T10:13:17.765Z,38.80
2019-04-10T10:14:52.122Z,40.48
2019-04-10T10:16:27.482Z,43.15
2019-04-10T10:18:03.386Z,45.65
2019-04-10T10:19:39.157Z,45.38
2019-04-10T10:21:14.425Z,45.80
2019-04-10T10:22:49.508Z,46.15
2019-04-10T10:24:24.648Z,53.13
2019-04-10T10:26:01.652Z,52.00
2019-04-10T10:27:36.159Z,51.92
2019-04-10T10:29:11.303Z,49.95
2019-04-10T10:30:47.297Z,47.75
2019-04-10T10:32:21.799Z,52.27
2019-04-10T10:33:56.532Z,38.40
2019-04-10T10:35:31.376Z,40.83
2019-04-10T10:37:08.304Z,41.55
2019-04-10T10:38:43.357Z,39.53
2019-04-10T10:40:19.296Z,44.60
2019-04-10T10:41:54.447Z,43.48
2019-04-10T10:43:29.250Z,41.25
2019-04-10T10:45:05.168Z,52.73
2019-04-10T10:46:39.775Z,53.00
2019-04-10T10:48:15.452Z,42.70
2019-04-10T10:49:50.792Z,42.58
2019-04-10T10:51:25.067Z,37.65
2019-04-10T10:52:59.774Z,34.43
2019-04-10T10:54:34.933Z,43.58
2019-04-10T10:56:09.867Z,43.00
2019-04-10T10:57:44.451Z,42.88
2019-04-10T10:59:19.609Z,36.75
2019-04-10T11:00:54.018Z,36.55
2019-04-10T11:02:29.570Z,42.50
2019-04-10T11:04:04.749Z,36.68
2019-04-10T11:05:39.189Z,45.92
2019-04-10T11:07:14.437Z,34.60
2019-04-10T11:08:49.412Z,32.15
2019-04-10T11:10:27.069Z,40.17
2019-04-10T11:12:00.124Z,35.80
2019-04-10T11:13:34.787Z,34.40
2019-04-10T11:15:10.082Z,33.78
2019-04-10T11:16:46.974Z,31.85
2019-04-10T11:18:22.240Z,34.90
2019-04-10T11:19:56.511Z,32.60
2019-04-10T11:21:32.397Z,29.75
2019-04-10T11:23:06.913Z,34.63
2019-04-10T11:24:42.763Z,32.03
2019-04-10T11:26:20.534Z,33.28
2019-04-10T11:27:54.007Z,30.27
2019-04-10T11:29:28.743Z,31.87
2019-04-10T11:31:03.260Z,36.40
2019-04-10T11:32:38.233Z,40.38
2019-04-10T11:34:14.042Z,38.40
2019-04-10T11:35:48.588Z,31.93
2019-04-10T11:37:34.294Z,34.35
2019-04-10T11:39:10.616Z,45.98
2019-04-10T11:40:35.084Z,42.13
2019-04-10T11:42:10.077Z,38.08
2019-04-10T11:43:46.304Z,44.65
2019-04-10T11:45:20.765Z,67.58
2019-04-10T11:46:56.865Z,57.10
2019-04-10T11:48:32.310Z,68.25
2019-04-10T11:51:46.569Z,49.10
2019-04-10T11:53:21.498Z,38.67
2019-04-10T11:55:05.118Z,44.55
2019-04-10T11:56:33.775Z,47.05
2019-04-10T11:58:08.579Z,40.45
2019-04-10T11:59:48.459Z,33.70
2019-04-10T12:01:22.834Z,31.33
2019-04-10T12:02:58.745Z,38.88
2019-04-10T12:04:44.495Z,29.77
2019-04-10T12:06:08.136Z,26.90
2019-04-10T12:09:58.703Z,31.93
2019-04-10T12:12:30.507Z,26.17
2019-04-10T12:14:05.044Z,29.80
2019-04-10T12:15:40.692Z,32.35
2019-04-10T12:17:16.036Z,29.77
2019-04-10T12:18:50.964Z,28.17
2019-04-10T12:20:25.378Z,33.63
2019-04-10T12:21:59.667Z,33.08
2019-04-10T12:23:34.733Z,27.37
2019-04-10T12:25:12.388Z,25.68
2019-04-10T12:26:46.158Z,34.45
2019-04-10T12:28:20.413Z,29.52
2019-04-10T12:29:55.106Z,27.98
2019-04-10T12:31:30.503Z,26.40
2019-04-10T12:33:05.399Z,25.75
2019-04-10T12:34:40.301Z,24.02
2019-04-10T12:36:14.798Z,28.25
2019-04-10T12:37:58.626Z,25.17
2019-04-10T12:39:25.523Z,21.42
2019-04-10T12:40:59.866Z,23.38
2019-04-10T12:42:34.548Z,22.90
2019-04-10T12:44:09.590Z,21.70
2019-04-10T12:45:44.387Z,23.07
2019-04-10T12:47:19.001Z,23.05
2019-04-10T12:48:53.284Z,22.50
2019-04-10T12:50:28.693Z,19.80
2019-04-10T12:52:03.165Z,22.60
2019-04-10T12:53:38.063Z,25.60
2019-04-10T12:55:12.782Z,18.62
2019-04-10T12:56:48.470Z,17.98
2019-04-10T12:58:23.069Z,20.80
2019-04-10T13:00:01.216Z,20.00
2019-04-10T13:01:33.381Z,18.40
2019-04-10T13:03:08.327Z,18.65
2019-04-10T13:04:44.843Z,21.70
2019-04-10T13:06:20.001Z,20.60
2019-04-10T13:07:54.557Z,18.52
2019-04-10T13:09:29.611Z,25.12
2019-04-10T13:11:04.498Z,23.60
2019-04-10T13:12:39.747Z,21.07
2019-04-10T13:14:14.752Z,21.50
2019-04-10T13:15:49.761Z,18.25
2019-04-10T13:17:24.832Z,21.20
2019-04-10T13:19:00.577Z,21.10
2019-04-10T13:20:35.194Z,20.85
2019-04-10T13:22:09.628Z,18.05
2019-04-10T13:23:44.753Z,26.95
2019-04-10T13:25:19.370Z,21.27
2019-04-10T13:26:55.043Z,17.82
2019-04-10T13:28:29.709Z,20.45
2019-04-10T13:30:12.570Z,23.07
2019-04-10T13:31:46.715Z,23.27
2019-04-10T13:33:21.290Z,19.25
2019-04-10T13:34:56.225Z,25.27
2019-04-10T13:36:31.374Z,30.50
2019-04-10T13:38:06.793Z,31.68
2019-04-10T13:39:41.397Z,29.50
2019-04-10T13:41:16.468Z,31.85
2019-04-10T13:42:51.576Z,84.20
2019-04-10T13:44:26.645Z,76.05
2019-04-10T13:46:01.005Z,30.68
2019-04-10T13:47:35.575Z,48.30
2019-04-10T13:49:09.838Z,29.87
2019-04-10T13:50:44.542Z,36.88
2019-04-10T13:52:18.759Z,29.98
2019-04-10T13:53:55.111Z,32.70
2019-04-10T13:55:30.440Z,31.45
2019-04-10T13:57:05.709Z,25.60
2019-04-10T13:58:40.369Z,28.42
2019-04-10T14:00:23.817Z,28.73
2019-04-10T14:01:58.492Z,24.40
2019-04-10T14:03:32.823Z,27.60
2019-04-10T14:05:11.761Z,28.95
2019-04-10T14:06:49.136Z,29.98
2019-04-10T14:08:33.772Z,24.47
2019-04-10T14:09:58.682Z,19.65
2019-04-10T14:11:33.344Z,26.02
2019-04-10T14:13:07.944Z,25.27
2019-04-10T14:14:42.503Z,30.70
2019-04-10T14:16:17.022Z,36.35
2019-04-10T14:17:52.125Z,26.05
2019-04-10T14:19:28.258Z,23.20
2019-04-10T14:21:07.509Z,34.90
2019-04-10T14:22:40.098Z,19.00
2019-04-10T14:24:14.386Z,19.55
2019-04-10T14:26:06.504Z,18.45
2019-04-10T14:27:42.587Z,21.00
2019-04-10T14:29:18.949Z,28.50
2019-04-10T14:30:55.712Z,26.07
2019-04-10T14:32:31.958Z,22.05
2019-04-10T14:34:07.335Z,71.33
2019-04-10T14:35:43.121Z,23.67
2019-04-10T14:37:17.607Z,22.20
2019-04-10T14:38:55.002Z,24.00
2019-04-10T14:40:30.498Z,26.35
2019-04-10T14:42:04.864Z,21.57
2019-04-10T14:43:39.737Z,18.90
2019-04-10T14:45:14.502Z,21.77
2019-04-10T14:46:49.709Z,18.35
2019-04-10T14:48:24.450Z,22.67
2019-04-10T14:49:59.631Z,33.40
2019-04-10T14:51:34.752Z,30.95
2019-04-10T14:53:09.651Z,19.48
2019-04-10T14:54:44.014Z,25.90
2019-04-10T14:56:18.254Z,21.80
2019-04-10T14:57:53.161Z,33.25
2019-04-10T14:59:28.220Z,24.02
2019-04-10T15:01:03.319Z,28.38
2019-04-10T15:02:39.665Z,23.02
2019-04-10T15:04:15.057Z,27.85
2019-04-10T15:05:51.439Z,22.62
2019-04-10T15:07:26.877Z,29.67
2019-04-10T15:09:01.401Z,32.13
2019-04-10T15:10:36.084Z,19.23
2019-04-10T15:12:10.444Z,21.37
2019-04-10T15:13:45.679Z,21.42
2019-04-10T15:15:20.556Z,19.87
2019-04-10T15:17:01.795Z,16.45
2019-04-10T15:18:33.089Z,21.07
2019-04-10T15:20:07.367Z,22.73
2019-04-10T15:21:41.598Z,25.20
2019-04-10T15:23:16.312Z,24.20
2019-04-10T15:24:51.633Z,23.73
2019-04-10T15:26:26.746Z,19.85
2019-04-10T15:28:02.145Z,20.88
2019-04-10T15:29:37.033Z,37.17
2019-04-10T15:31:11.381Z,23.80
2019-04-10T15:32:45.625Z,18.80
2019-04-10T15:34:20.482Z,20.35
2019-04-10T15:35:55.475Z,22.42
2019-04-10T15:37:31.180Z,22.90
2019-04-10T15:39:08.697Z,18.48
2019-04-10T15:40:44.068Z,19.35
2019-04-10T15:42:19.735Z,17.45
2019-04-10T15:43:55.561Z,50.80
2019-04-10T15:45:30.213Z,41.92
2019-04-10T15:47:13.644Z,30.50
2019-04-10T15:48:41.890Z,25.17
2019-04-10T15:50:16.549Z,61.73
2019-04-10T15:51:50.832Z,34.92
2019-04-10T15:53:26.391Z,49.50
2019-04-10T15:55:01.589Z,43.33
2019-04-10T15:56:36.171Z,29.18
2019-04-10T15:58:10.830Z,23.45
2019-04-10T15:59:46.307Z,28.70
2019-04-10T16:01:21.687Z,23.02
2019-04-10T16:02:57.246Z,22.48
2019-04-10T16:04:31.787Z,18.48
2019-04-10T16:06:06.236Z,21.62
2019-04-10T16:07:40.776Z,19.80
2019-04-10T16:09:15.078Z,30.25
2019-04-10T16:10:55.041Z,25.37
2019-04-10T16:12:30.370Z,30.48
2019-04-10T16:14:17.071Z,25.08
2019-04-10T16:15:43.577Z,24.45
2019-04-10T16:17:22.879Z,28.40
2019-04-10T16:19:11.964Z,33.80
2019-04-10T16:20:47.792Z,24.77
2019-04-10T16:22:27.626Z,24.50
2019-04-10T16:24:07.141Z,22.15
2019-04-10T16:25:44.765Z,20.35
2019-04-10T16:27:20.170Z,19.92
2019-04-10T16:28:55.672Z,25.88
2019-04-10T16:30:30.683Z,17.50
2019-04-10T16:32:06.829Z,19.15
2019-04-10T16:33:41.363Z,70.45
2019-04-10T16:35:15.815Z,62.88
2019-04-10T16:36:52.133Z,39.15
2019-04-10T16:38:26.810Z,33.70
2019-04-10T16:40:04.447Z,28.85
2019-04-10T16:41:38.583Z,20.95
2019-04-10T16:43:13.924Z,26.12
2019-04-10T16:44:49.182Z,28.80
2019-04-10T16:46:23.800Z,35.45
2019-04-10T16:47:58.808Z,44.30
2019-04-10T16:49:33.239Z,39.35
2019-04-10T16:51:08.015Z,42.35
2019-04-10T16:52:42.425Z,47.75
2019-04-10T16:54:18.641Z,41.08
2019-04-10T16:55:53.382Z,50.63
2019-04-10T16:57:29.029Z,58.95
2019-04-10T16:59:04.525Z,83.47
2019-04-10T17:00:39.699Z,90.90
2019-04-10T17:02:15.651Z,87.45
2019-04-10T17:03:50.099Z,84.37
2019-04-10T17:05:25.966Z,102.07
2019-04-10T17:07:00.833Z,121.80
2019-04-10T17:08:37.378Z,101.92
2019-04-10T17:10:18.385Z,79.85
2019-04-10T17:11:49.286Z,55.52
2019-04-10T17:13:24.564Z,50.60
2019-04-10T17:14:59.607Z,52.58
2019-04-10T17:16:34.262Z,39.53
2019-04-10T17:18:08.737Z,44.48
2019-04-10T17:19:46.363Z,44.55
2019-04-10T17:21:19.912Z,49.05
2019-04-10T17:22:56.217Z,53.23
2019-04-10T17:24:31.421Z,51.77
2019-04-10T17:26:08.678Z,60.23
2019-04-10T17:27:43.793Z,71.53
2019-04-10T17:29:18.876Z,66.72
2019-04-10T17:30:53.942Z,69.82
2019-04-10T17:32:29.159Z,39.50
2019-04-10T17:34:03.610Z,37.40
2019-04-10T17:35:38.396Z,30.62
2019-04-10T17:37:13.655Z,28.35
2019-04-10T17:38:48.964Z,38.25
2019-04-10T17:40:31.977Z,27.42
2019-04-10T17:42:00.029Z,37.88
2019-04-10T17:43:35.100Z,48.00
2019-04-10T17:45:12.173Z,46.35
2019-04-10T17:46:47.038Z,31.90
2019-04-10T17:48:21.995Z,28.95
2019-04-10T17:50:01.031Z,24.67
2019-04-10T17:51:36.327Z,53.10
2019-04-10T17:53:11.480Z,69.62
2019-04-10T17:54:47.106Z,54.60
2019-04-10T17:56:22.267Z,40.12
2019-04-10T17:57:58.144Z,32.63
2019-04-10T17:59:32.767Z,31.33
2019-04-10T18:01:08.985Z,47.93
2019-04-10T18:02:43.293Z,42.55
2019-04-10T18:04:17.935Z,64.77
2019-04-10T18:05:55.039Z,44.63
2019-04-10T18:07:30.186Z,50.00
2019-04-10T18:09:07.869Z,46.63
2019-04-10T18:10:48.752Z,39.38
2019-04-10T18:12:19.401Z,30.17
2019-04-10T18:13:55.254Z,33.00
2019-04-10T18:15:30.289Z,29.23
2019-04-10T18:17:06.581Z,34.45
2019-04-10T18:18:44.246Z,40.78
2019-04-10T18:20:19.994Z,39.38
2019-04-10T18:21:56.357Z,41.77
2019-04-10T18:23:31.491Z,41.58
2019-04-10T18:25:07.623Z,42.70
2019-04-10T18:26:42.234Z,38.33
2019-04-10T18:28:17.194Z,40.20
2019-04-10T18:29:51.807Z,37.23
2019-04-10T18:31:28.112Z,36.80
2019-04-10T18:33:05.085Z,36.38
2019-04-10T18:34:40.359Z,46.00
2019-04-10T18:36:15.373Z,39.75
2019-04-10T18:37:49.971Z,41.37
2019-04-10T18:39:24.638Z,43.85
2019-04-10T18:41:03.415Z,44.23
2019-04-10T18:42:35.822Z,47.40
2019-04-10T18:44:10.981Z,48.93
2019-04-10T18:45:57.468Z,43.15
2019-04-10T18:47:21.261Z,45.10
2019-04-10T18:48:56.762Z,44.10
2019-04-10T18:50:32.153Z,45.98
2019-04-10T18:52:10.886Z,61.33
2019-04-10T18:53:45.746Z,71.33
2019-04-10T18:55:20.448Z,59.88
2019-04-10T18:56:55.675Z,51.58
2019-04-10T18:58:31.904Z,49.73
2019-04-10T19:00:28.994Z,52.70
2019-04-10T19:02:13.889Z,64.00
2019-04-10T19:04:00.643Z,83.40
2019-04-10T19:05:33.984Z,78.00
2019-04-10T19:07:09.142Z,86.12
2019-04-10T19:08:43.999Z,79.97
2019-04-10T19:10:18.375Z,75.87
2019-04-10T19:11:52.844Z,63.07
2019-04-10T19:13:27.256Z,66.33
2019-04-10T19:15:01.514Z,50.63
2019-04-10T19:16:36.007Z,45.15
2019-04-10T19:18:11.911Z,48.13
2019-04-10T19:19:46.630Z,58.65
2019-04-10T19:21:21.761Z,52.93
2019-04-10T19:22:56.806Z,42.03
2019-04-10T19:24:30.737Z,37.87
2019-04-10T19:26:08.501Z,39.78
2019-04-10T19:27:42.262Z,35.50
2019-04-10T19:29:17.131Z,38.87
2019-04-10T19:31:08.055Z,33.83
2019-04-10T19:32:33.367Z,36.15
2019-04-10T19:34:09.434Z,38.85
2019-04-10T19:35:44.043Z,37.85
2019-04-10T19:37:18.562Z,37.80
2019-04-10T19:38:52.465Z,40.60
2019-04-10T19:40:27.946Z,44.67
2019-04-10T19:42:02.866Z,39.55
2019-04-10T19:43:37.979Z,42.25
2019-04-10T19:45:12.594Z,40.85
2019-04-10T19:46:48.019Z,39.23
2019-04-10T19:48:23.390Z,38.13
2019-04-10T19:49:59.150Z,38.95
2019-04-10T19:51:32.924Z,42.97
2019-04-10T19:53:07.153Z,39.70
2019-04-10T19:54:41.186Z,39.37
2019-04-10T19:56:16.052Z,46.35
2019-04-10T19:57:50.597Z,46.73
2019-04-10T19:59:25.013Z,47.10
2019-04-10T20:00:59.662Z,45.08
2019-04-10T20:02:34.976Z,45.45
2019-04-10T20:04:10.379Z,46.10
2019-04-10T20:05:44.099Z,46.70
2019-04-10T20:07:20.826Z,49.00
2019-04-10T20:08:55.647Z,45.35
2019-04-10T20:10:30.347Z,40.58
2019-04-10T20:12:04.560Z,47.03
2019-04-10T20:13:39.284Z,46.08
2019-04-10T20:15:14.097Z,42.98
2019-04-10T20:16:49.369Z,39.40
2019-04-10T20:18:24.508Z,44.90
2019-04-10T20:19:59.919Z,43.65
2019-04-10T20:21:34.498Z,41.42
2019-04-10T20:23:09.687Z,43.65
2019-04-10T20:24:43.728Z,37.50
2019-04-10T20:26:17.629Z,41.07
2019-04-10T20:27:52.121Z,37.67
2019-04-10T20:29:26.697Z,36.87
2019-04-10T20:31:01.345Z,42.13